sensor_id;sensor_type;location;lat;lon;timestamp;P1;durP1;ratioP1;P2;durP2;ratioP2
46643;SDS011;32371;51.032;5.816;2023-03-24T00:02:05;3.95;;;0.90;;
46643;SDS011;32371;51.032;5.816;2023-03-24T00:04:31;1.63;;;1.40;;
46643;SDS011;32371;51.032;5.816;2023-03-24T00:06:58;1.63;;;0.60;;
46643;SDS011;32371;51.032;5.816;2023-03-24T00:09:25;1.40;;;0.95;;
46643;SDS011;32371;51.032;5.816;2023-03-24T00:11:54;2.30;;;0.80;;
46643;SDS011;32371;51.032;5.816;2023-03-24T00:14:20;1.75;;;0.88;;
46643;SDS011;32371;51.032;5.816;2023-03-24T00:16:45;1.33;;;0.70;;
46643;SDS011;32371;51.032;5.816;2023-03-24T00:19:11;1.17;;;0.93;;
46643;SDS011;32371;51.032;5.816;2023-03-24T00:21:39;2.15;;;0.90;;
46643;SDS011;32371;51.032;5.816;2023-03-24T00:24:06;1.30;;;0.68;;
46643;SDS011;32371;51.032;5.816;2023-03-24T00:26:33;1.48;;;0.75;;
46643;SDS011;32371;51.032;5.816;2023-03-24T00:29:02;0.60;;;0.50;;
46643;SDS011;32371;51.032;5.816;2023-03-24T00:31:29;2.47;;;1.05;;
46643;SDS011;32371;51.032;5.816;2023-03-24T00:33:54;4.97;;;0.90;;
46643;SDS011;32371;51.032;5.816;2023-03-24T00:36:24;1.00;;;0.93;;
46643;SDS011;32371;51.032;5.816;2023-03-24T00:38:51;4.07;;;1.08;;
46643;SDS011;32371;51.032;5.816;2023-03-24T00:41:17;4.47;;;1.63;;
46643;SDS011;32371;51.032;5.816;2023-03-24T00:43:44;1.45;;;0.98;;
46643;SDS011;32371;51.032;5.816;2023-03-24T00:46:11;1.33;;;0.80;;
46643;SDS011;32371;51.032;5.816;2023-03-24T00:48:38;1.27;;;0.75;;
46643;SDS011;32371;51.032;5.816;2023-03-24T00:51:06;1.23;;;0.75;;
46643;SDS011;32371;51.032;5.816;2023-03-24T00:53:35;1.92;;;1.00;;
46643;SDS011;32371;51.032;5.816;2023-03-24T00:56:01;1.42;;;1.00;;
46643;SDS011;32371;51.032;5.816;2023-03-24T00:58:27;3.72;;;0.90;;
46643;SDS011;32371;51.032;5.816;2023-03-24T01:00:54;2.67;;;1.10;;
46643;SDS011;32371;51.032;5.816;2023-03-24T01:03:21;1.45;;;1.15;;
46643;SDS011;32371;51.032;5.816;2023-03-24T01:05:50;1.30;;;0.90;;
46643;SDS011;32371;51.032;5.816;2023-03-24T01:08:18;4.03;;;1.05;;
46643;SDS011;32371;51.032;5.816;2023-03-24T01:10:44;1.65;;;0.80;;
46643;SDS011;32371;51.032;5.816;2023-03-24T01:13:21;1.98;;;0.90;;
46643;SDS011;32371;51.032;5.816;2023-03-24T01:15:48;1.83;;;0.90;;
46643;SDS011;32371;51.032;5.816;2023-03-24T01:18:14;3.95;;;1.05;;
46643;SDS011;32371;51.032;5.816;2023-03-24T01:20:40;3.47;;;1.35;;
46643;SDS011;32371;51.032;5.816;2023-03-24T01:23:09;3.65;;;1.25;;
46643;SDS011;32371;51.032;5.816;2023-03-24T01:25:36;1.38;;;0.95;;
46643;SDS011;32371;51.032;5.816;2023-03-24T01:28:02;2.00;;;0.95;;
46643;SDS011;32371;51.032;5.816;2023-03-24T01:30:29;1.58;;;1.13;;
46643;SDS011;32371;51.032;5.816;2023-03-24T01:32:55;1.95;;;1.13;;
46643;SDS011;32371;51.032;5.816;2023-03-24T01:35:22;2.53;;;1.30;;
46643;SDS011;32371;51.032;5.816;2023-03-24T01:37:49;3.15;;;1.17;;
46643;SDS011;32371;51.032;5.816;2023-03-24T01:40:16;2.33;;;0.85;;
46643;SDS011;32371;51.032;5.816;2023-03-24T01:42:45;1.40;;;1.23;;
46643;SDS011;32371;51.032;5.816;2023-03-24T01:48:11;1.45;;;1.27;;
46643;SDS011;32371;51.032;5.816;2023-03-24T01:50:39;2.50;;;1.33;;
46643;SDS011;32371;51.032;5.816;2023-03-24T01:53:06;2.70;;;1.15;;
46643;SDS011;32371;51.032;5.816;2023-03-24T01:55:32;2.15;;;1.20;;
46643;SDS011;32371;51.032;5.816;2023-03-24T01:57:59;1.50;;;1.02;;
46643;SDS011;32371;51.032;5.816;2023-03-24T02:00:25;2.35;;;0.95;;
46643;SDS011;32371;51.032;5.816;2023-03-24T02:02:53;1.13;;;0.73;;
46643;SDS011;32371;51.032;5.816;2023-03-24T02:05:23;1.77;;;1.15;;
46643;SDS011;32371;51.032;5.816;2023-03-24T02:07:52;3.08;;;1.50;;
46643;SDS011;32371;51.032;5.816;2023-03-24T02:10:20;1.80;;;1.20;;
46643;SDS011;32371;51.032;5.816;2023-03-24T02:12:46;2.60;;;1.00;;
46643;SDS011;32371;51.032;5.816;2023-03-24T02:15:13;3.25;;;2.05;;
46643;SDS011;32371;51.032;5.816;2023-03-24T02:36:34;2.00;;;1.23;;
46643;SDS011;32371;51.032;5.816;2023-03-24T02:44:52;1.17;;;0.88;;
46643;SDS011;32371;51.032;5.816;2023-03-24T02:50:48;3.75;;;1.05;;
46643;SDS011;32371;51.032;5.816;2023-03-24T02:53:25;4.75;;;1.77;;
46643;SDS011;32371;51.032;5.816;2023-03-24T02:58:35;3.80;;;1.10;;
46643;SDS011;32371;51.032;5.816;2023-03-24T03:01:12;3.92;;;1.05;;
46643;SDS011;32371;51.032;5.816;2023-03-24T03:03:55;0.73;;;0.73;;
46643;SDS011;32371;51.032;5.816;2023-03-24T03:06:27;2.05;;;1.70;;
46643;SDS011;32371;51.032;5.816;2023-03-24T03:08:56;2.08;;;0.95;;
46643;SDS011;32371;51.032;5.816;2023-03-24T03:11:23;6.72;;;1.38;;
46643;SDS011;32371;51.032;5.816;2023-03-24T03:17:16;2.83;;;1.63;;
46643;SDS011;32371;51.032;5.816;2023-03-24T03:19:55;2.38;;;1.40;;
46643;SDS011;32371;51.032;5.816;2023-03-24T03:22:27;1.42;;;1.33;;
46643;SDS011;32371;51.032;5.816;2023-03-24T03:27:23;1.77;;;1.08;;
46643;SDS011;32371;51.032;5.816;2023-03-24T03:29:54;2.22;;;1.42;;
46643;SDS011;32371;51.032;5.816;2023-03-24T03:32:25;1.40;;;1.20;;
46643;SDS011;32371;51.032;5.816;2023-03-24T03:39:54;1.30;;;0.88;;
46643;SDS011;32371;51.032;5.816;2023-03-24T03:42:22;1.95;;;1.05;;
46643;SDS011;32371;51.032;5.816;2023-03-24T03:44:47;1.40;;;0.98;;
46643;SDS011;32371;51.032;5.816;2023-03-24T03:47:13;0.60;;;0.55;;
46643;SDS011;32371;51.032;5.816;2023-03-24T03:49:39;4.47;;;1.13;;
46643;SDS011;32371;51.032;5.816;2023-03-24T03:52:05;1.63;;;0.65;;
46643;SDS011;32371;51.032;5.816;2023-03-24T03:54:30;2.33;;;0.52;;
46643;SDS011;32371;51.032;5.816;2023-03-24T03:56:57;2.10;;;0.75;;
46643;SDS011;32371;51.032;5.816;2023-03-24T03:59:28;2.45;;;0.93;;
46643;SDS011;32371;51.032;5.816;2023-03-24T04:01:59;2.13;;;0.85;;
46643;SDS011;32371;51.032;5.816;2023-03-24T04:04:49;1.02;;;0.60;;
46643;SDS011;32371;51.032;5.816;2023-03-24T04:12:42;2.95;;;1.00;;
46643;SDS011;32371;51.032;5.816;2023-03-24T04:18:14;1.95;;;0.88;;
46643;SDS011;32371;51.032;5.816;2023-03-24T04:23:50;1.70;;;0.77;;
46643;SDS011;32371;51.032;5.816;2023-03-24T04:26:25;1.75;;;0.70;;
46643;SDS011;32371;51.032;5.816;2023-03-24T04:29:14;2.60;;;0.25;;
46643;SDS011;32371;51.032;5.816;2023-03-24T04:31:47;1.70;;;0.30;;
46643;SDS011;32371;51.032;5.816;2023-03-24T04:36:46;1.95;;;0.88;;
46643;SDS011;32371;51.032;5.816;2023-03-24T04:39:19;5.03;;;0.68;;
46643;SDS011;32371;51.032;5.816;2023-03-24T04:41:53;2.05;;;0.65;;
46643;SDS011;32371;51.032;5.816;2023-03-24T04:44:20;2.28;;;0.40;;
46643;SDS011;32371;51.032;5.816;2023-03-24T04:46:49;2.13;;;0.32;;
46643;SDS011;32371;51.032;5.816;2023-03-24T04:49:17;0.47;;;0.30;;
46643;SDS011;32371;51.032;5.816;2023-03-24T04:51:49;2.60;;;0.40;;
46643;SDS011;32371;51.032;5.816;2023-03-24T04:54:15;4.25;;;0.57;;
46643;SDS011;32371;51.032;5.816;2023-03-24T04:56:51;1.58;;;0.57;;
46643;SDS011;32371;51.032;5.816;2023-03-24T04:59:17;2.38;;;0.93;;
46643;SDS011;32371;51.032;5.816;2023-03-24T05:01:43;1.00;;;0.40;;
46643;SDS011;32371;51.032;5.816;2023-03-24T05:04:20;3.60;;;0.40;;
46643;SDS011;32371;51.032;5.816;2023-03-24T05:06:48;0.40;;;0.20;;
46643;SDS011;32371;51.032;5.816;2023-03-24T05:09:17;3.75;;;0.60;;
46643;SDS011;32371;51.032;5.816;2023-03-24T05:11:43;2.58;;;0.60;;
46643;SDS011;32371;51.032;5.816;2023-03-24T05:14:09;1.85;;;0.70;;
46643;SDS011;32371;51.032;5.816;2023-03-24T05:16:34;2.95;;;0.40;;
46643;SDS011;32371;51.032;5.816;2023-03-24T05:19:00;1.20;;;0.43;;
46643;SDS011;32371;51.032;5.816;2023-03-24T05:21:26;0.93;;;0.43;;
46643;SDS011;32371;51.032;5.816;2023-03-24T05:23:57;2.90;;;0.30;;
46643;SDS011;32371;51.032;5.816;2023-03-24T05:26:23;2.10;;;0.52;;
46643;SDS011;32371;51.032;5.816;2023-03-24T05:28:50;5.70;;;0.50;;
46643;SDS011;32371;51.032;5.816;2023-03-24T05:31:16;1.45;;;0.22;;
46643;SDS011;32371;51.032;5.816;2023-03-24T05:33:41;3.65;;;0.45;;
46643;SDS011;32371;51.032;5.816;2023-03-24T05:36:07;1.98;;;0.30;;
46643;SDS011;32371;51.032;5.816;2023-03-24T05:38:33;2.45;;;0.63;;
46643;SDS011;32371;51.032;5.816;2023-03-24T05:40:59;6.78;;;0.40;;
46643;SDS011;32371;51.032;5.816;2023-03-24T05:43:25;7.40;;;1.13;;
46643;SDS011;32371;51.032;5.816;2023-03-24T05:45:50;5.35;;;0.50;;
46643;SDS011;32371;51.032;5.816;2023-03-24T05:48:16;4.55;;;0.73;;
46643;SDS011;32371;51.032;5.816;2023-03-24T05:50:42;12.25;;;1.02;;
46643;SDS011;32371;51.032;5.816;2023-03-24T05:53:07;2.03;;;0.52;;
46643;SDS011;32371;51.032;5.816;2023-03-24T05:55:33;1.70;;;0.38;;
46643;SDS011;32371;51.032;5.816;2023-03-24T05:57:59;2.67;;;0.73;;
46643;SDS011;32371;51.032;5.816;2023-03-24T06:00:26;2.20;;;0.55;;
46643;SDS011;32371;51.032;5.816;2023-03-24T06:02:53;5.43;;;0.57;;
46643;SDS011;32371;51.032;5.816;2023-03-24T06:05:18;3.08;;;0.75;;
46643;SDS011;32371;51.032;5.816;2023-03-24T06:07:44;2.47;;;0.52;;
46643;SDS011;32371;51.032;5.816;2023-03-24T06:10:10;1.45;;;0.50;;
46643;SDS011;32371;51.032;5.816;2023-03-24T06:12:38;4.75;;;1.10;;
46643;SDS011;32371;51.032;5.816;2023-03-24T06:15:04;4.10;;;1.00;;
46643;SDS011;32371;51.032;5.816;2023-03-24T06:17:31;4.93;;;1.00;;
46643;SDS011;32371;51.032;5.816;2023-03-24T06:19:57;6.05;;;1.20;;
46643;SDS011;32371;51.032;5.816;2023-03-24T06:22:27;3.50;;;0.75;;
46643;SDS011;32371;51.032;5.816;2023-03-24T06:24:53;5.65;;;0.95;;
46643;SDS011;32371;51.032;5.816;2023-03-24T06:27:20;6.18;;;1.30;;
46643;SDS011;32371;51.032;5.816;2023-03-24T06:29:50;6.50;;;1.75;;
46643;SDS011;32371;51.032;5.816;2023-03-24T06:32:17;11.32;;;1.40;;
46643;SDS011;32371;51.032;5.816;2023-03-24T06:34:43;9.82;;;1.33;;
46643;SDS011;32371;51.032;5.816;2023-03-24T06:37:09;3.22;;;1.05;;
46643;SDS011;32371;51.032;5.816;2023-03-24T06:39:34;15.98;;;2.17;;
46643;SDS011;32371;51.032;5.816;2023-03-24T06:42:00;3.15;;;1.13;;
46643;SDS011;32371;51.032;5.816;2023-03-24T06:44:25;10.68;;;1.95;;
46643;SDS011;32371;51.032;5.816;2023-03-24T06:46:51;6.50;;;1.33;;
46643;SDS011;32371;51.032;5.816;2023-03-24T06:49:16;6.10;;;1.70;;
46643;SDS011;32371;51.032;5.816;2023-03-24T06:51:42;5.05;;;2.70;;
46643;SDS011;32371;51.032;5.816;2023-03-24T06:54:07;6.10;;;1.65;;
46643;SDS011;32371;51.032;5.816;2023-03-24T06:56:33;3.55;;;1.30;;
46643;SDS011;32371;51.032;5.816;2023-03-24T06:58:58;8.00;;;1.45;;
46643;SDS011;32371;51.032;5.816;2023-03-24T07:01:24;8.80;;;1.27;;
46643;SDS011;32371;51.032;5.816;2023-03-24T07:03:50;8.05;;;1.33;;
46643;SDS011;32371;51.032;5.816;2023-03-24T07:06:16;2.90;;;1.02;;
46643;SDS011;32371;51.032;5.816;2023-03-24T07:08:43;5.35;;;1.90;;
46643;SDS011;32371;51.032;5.816;2023-03-24T07:11:10;4.35;;;0.95;;
46643;SDS011;32371;51.032;5.816;2023-03-24T07:13:35;3.58;;;1.30;;
46643;SDS011;32371;51.032;5.816;2023-03-24T07:16:01;7.07;;;1.00;;
46643;SDS011;32371;51.032;5.816;2023-03-24T07:18:26;8.73;;;1.05;;
46643;SDS011;32371;51.032;5.816;2023-03-24T07:20:52;7.78;;;1.05;;
46643;SDS011;32371;51.032;5.816;2023-03-24T07:23:17;2.60;;;0.95;;
46643;SDS011;32371;51.032;5.816;2023-03-24T07:25:43;7.32;;;1.23;;
46643;SDS011;32371;51.032;5.816;2023-03-24T07:28:09;6.55;;;0.85;;
46643;SDS011;32371;51.032;5.816;2023-03-24T07:30:35;7.20;;;1.38;;
46643;SDS011;32371;51.032;5.816;2023-03-24T07:33:01;6.38;;;0.93;;
46643;SDS011;32371;51.032;5.816;2023-03-24T07:35:27;14.32;;;1.90;;
46643;SDS011;32371;51.032;5.816;2023-03-24T07:37:56;4.28;;;1.20;;
46643;SDS011;32371;51.032;5.816;2023-03-24T07:40:22;9.63;;;1.45;;
46643;SDS011;32371;51.032;5.816;2023-03-24T07:42:48;3.42;;;1.00;;
46643;SDS011;32371;51.032;5.816;2023-03-24T07:45:14;6.20;;;1.08;;
46643;SDS011;32371;51.032;5.816;2023-03-24T07:47:41;5.00;;;1.15;;
46643;SDS011;32371;51.032;5.816;2023-03-24T07:50:08;6.05;;;0.95;;
46643;SDS011;32371;51.032;5.816;2023-03-24T07:52:41;6.30;;;1.02;;
46643;SDS011;32371;51.032;5.816;2023-03-24T07:55:08;4.22;;;1.20;;
46643;SDS011;32371;51.032;5.816;2023-03-24T07:57:35;10.32;;;1.60;;
46643;SDS011;32371;51.032;5.816;2023-03-24T08:00:05;7.00;;;1.20;;
46643;SDS011;32371;51.032;5.816;2023-03-24T08:02:44;4.07;;;1.30;;
46643;SDS011;32371;51.032;5.816;2023-03-24T08:05:13;8.00;;;1.48;;
46643;SDS011;32371;51.032;5.816;2023-03-24T08:07:43;9.95;;;1.58;;
46643;SDS011;32371;51.032;5.816;2023-03-24T08:10:11;6.80;;;1.10;;
46643;SDS011;32371;51.032;5.816;2023-03-24T08:12:38;5.45;;;1.10;;
46643;SDS011;32371;51.032;5.816;2023-03-24T08:15:04;4.43;;;1.17;;
46643;SDS011;32371;51.032;5.816;2023-03-24T08:17:31;5.80;;;1.40;;
46643;SDS011;32371;51.032;5.816;2023-03-24T08:19:57;6.22;;;1.25;;
46643;SDS011;32371;51.032;5.816;2023-03-24T08:22:23;4.90;;;2.20;;
46643;SDS011;32371;51.032;5.816;2023-03-24T08:24:48;4.63;;;1.30;;
46643;SDS011;32371;51.032;5.816;2023-03-24T08:27:13;5.65;;;1.00;;
46643;SDS011;32371;51.032;5.816;2023-03-24T08:29:41;5.88;;;1.50;;
46643;SDS011;32371;51.032;5.816;2023-03-24T08:32:06;10.10;;;1.70;;
46643;SDS011;32371;51.032;5.816;2023-03-24T08:34:32;7.22;;;1.40;;
46643;SDS011;32371;51.032;5.816;2023-03-24T08:36:57;2.13;;;1.02;;
46643;SDS011;32371;51.032;5.816;2023-03-24T08:39:22;7.55;;;1.83;;
46643;SDS011;32371;51.032;5.816;2023-03-24T08:41:48;8.15;;;1.70;;
46643;SDS011;32371;51.032;5.816;2023-03-24T08:44:14;8.80;;;1.80;;
46643;SDS011;32371;51.032;5.816;2023-03-24T08:46:39;5.07;;;1.65;;
46643;SDS011;32371;51.032;5.816;2023-03-24T08:49:05;9.07;;;1.40;;
46643;SDS011;32371;51.032;5.816;2023-03-24T08:51:30;4.97;;;1.20;;
46643;SDS011;32371;51.032;5.816;2023-03-24T08:53:56;10.00;;;2.03;;
46643;SDS011;32371;51.032;5.816;2023-03-24T08:56:21;5.63;;;1.40;;
46643;SDS011;32371;51.032;5.816;2023-03-24T08:58:47;4.50;;;1.30;;
46643;SDS011;32371;51.032;5.816;2023-03-24T09:01:15;7.70;;;1.70;;
46643;SDS011;32371;51.032;5.816;2023-03-24T09:03:44;8.88;;;1.90;;
46643;SDS011;32371;51.032;5.816;2023-03-24T09:06:10;7.00;;;1.95;;
46643;SDS011;32371;51.032;5.816;2023-03-24T09:08:36;5.55;;;1.65;;
46643;SDS011;32371;51.032;5.816;2023-03-24T09:11:01;6.50;;;1.35;;
46643;SDS011;32371;51.032;5.816;2023-03-24T09:13:27;5.63;;;1.35;;
46643;SDS011;32371;51.032;5.816;2023-03-24T09:15:53;4.57;;;1.88;;
46643;SDS011;32371;51.032;5.816;2023-03-24T09:18:22;5.82;;;1.10;;
46643;SDS011;32371;51.032;5.816;2023-03-24T09:20:48;9.45;;;1.23;;
46643;SDS011;32371;51.032;5.816;2023-03-24T09:23:13;3.70;;;1.17;;
46643;SDS011;32371;51.032;5.816;2023-03-24T09:25:39;6.35;;;1.05;;
46643;SDS011;32371;51.032;5.816;2023-03-24T09:28:04;4.15;;;1.25;;
46643;SDS011;32371;51.032;5.816;2023-03-24T09:30:32;3.85;;;1.13;;
46643;SDS011;32371;51.032;5.816;2023-03-24T09:32:57;6.47;;;1.30;;
46643;SDS011;32371;51.032;5.816;2023-03-24T09:35:24;7.30;;;1.08;;
46643;SDS011;32371;51.032;5.816;2023-03-24T09:37:51;1.50;;;1.25;;
46643;SDS011;32371;51.032;5.816;2023-03-24T09:40:20;5.38;;;1.38;;
46643;SDS011;32371;51.032;5.816;2023-03-24T09:42:53;8.57;;;1.27;;
46643;SDS011;32371;51.032;5.816;2023-03-24T09:45:21;3.03;;;1.40;;
46643;SDS011;32371;51.032;5.816;2023-03-24T09:47:49;8.52;;;1.50;;
46643;SDS011;32371;51.032;5.816;2023-03-24T09:50:24;3.75;;;1.13;;
46643;SDS011;32371;51.032;5.816;2023-03-24T09:52:53;6.45;;;1.00;;
46643;SDS011;32371;51.032;5.816;2023-03-24T09:55:24;3.85;;;1.10;;
46643;SDS011;32371;51.032;5.816;2023-03-24T09:57:50;11.35;;;1.98;;
46643;SDS011;32371;51.032;5.816;2023-03-24T10:00:21;3.42;;;1.35;;
46643;SDS011;32371;51.032;5.816;2023-03-24T10:02:49;4.85;;;1.42;;
46643;SDS011;32371;51.032;5.816;2023-03-24T10:05:37;4.10;;;1.13;;
46643;SDS011;32371;51.032;5.816;2023-03-24T10:21:49;4.22;;;0.85;;
46643;SDS011;32371;51.032;5.816;2023-03-24T10:24:25;8.02;;;0.98;;
46643;SDS011;32371;51.032;5.816;2023-03-24T10:29:51;9.70;;;1.10;;
46643;SDS011;32371;51.032;5.816;2023-03-24T10:32:22;6.43;;;1.35;;
46643;SDS011;32371;51.032;5.816;2023-03-24T10:34:51;6.88;;;1.23;;
46643;SDS011;32371;51.032;5.816;2023-03-24T10:37:20;7.13;;;1.35;;
46643;SDS011;32371;51.032;5.816;2023-03-24T10:39:46;4.75;;;1.17;;
46643;SDS011;32371;51.032;5.816;2023-03-24T10:42:13;2.63;;;1.40;;
46643;SDS011;32371;51.032;5.816;2023-03-24T10:44:40;5.68;;;1.13;;
46643;SDS011;32371;51.032;5.816;2023-03-24T10:47:08;7.88;;;1.80;;
46643;SDS011;32371;51.032;5.816;2023-03-24T10:49:34;4.45;;;1.83;;
46643;SDS011;32371;51.032;5.816;2023-03-24T10:52:00;6.13;;;1.02;;
46643;SDS011;32371;51.032;5.816;2023-03-24T10:54:28;5.32;;;1.08;;
46643;SDS011;32371;51.032;5.816;2023-03-24T11:02:17;2.50;;;1.20;;
46643;SDS011;32371;51.032;5.816;2023-03-24T11:04:43;4.07;;;1.08;;
46643;SDS011;32371;51.032;5.816;2023-03-24T11:07:18;6.88;;;1.27;;
46643;SDS011;32371;51.032;5.816;2023-03-24T11:09:45;4.82;;;1.30;;
46643;SDS011;32371;51.032;5.816;2023-03-24T11:12:21;6.45;;;1.63;;
46643;SDS011;32371;51.032;5.816;2023-03-24T11:14:49;5.90;;;1.38;;
46643;SDS011;32371;51.032;5.816;2023-03-24T11:17:17;2.40;;;1.10;;
46643;SDS011;32371;51.032;5.816;2023-03-24T11:19:51;4.88;;;1.65;;
46643;SDS011;32371;51.032;5.816;2023-03-24T11:24:43;4.10;;;0.90;;
46643;SDS011;32371;51.032;5.816;2023-03-24T11:27:16;5.13;;;1.10;;
46643;SDS011;32371;51.032;5.816;2023-03-24T11:29:43;5.53;;;0.73;;
46643;SDS011;32371;51.032;5.816;2023-03-24T11:32:14;8.32;;;1.08;;
46643;SDS011;32371;51.032;5.816;2023-03-24T11:34:46;7.28;;;1.08;;
46643;SDS011;32371;51.032;5.816;2023-03-24T11:37:18;5.72;;;1.25;;
46643;SDS011;32371;51.032;5.816;2023-03-24T11:39:48;6.32;;;1.02;;
46643;SDS011;32371;51.032;5.816;2023-03-24T11:42:50;5.95;;;1.10;;
46643;SDS011;32371;51.032;5.816;2023-03-24T11:47:44;1.95;;;0.70;;
46643;SDS011;32371;51.032;5.816;2023-03-24T11:58:01;7.95;;;0.95;;
46643;SDS011;32371;51.032;5.816;2023-03-24T12:00:30;2.45;;;0.55;;
46643;SDS011;32371;51.032;5.816;2023-03-24T12:05:36;3.65;;;1.05;;
46643;SDS011;32371;51.032;5.816;2023-03-24T12:13:09;1.73;;;0.57;;
46643;SDS011;32371;51.032;5.816;2023-03-24T12:16:06;4.70;;;0.77;;
46643;SDS011;32371;51.032;5.816;2023-03-24T12:18:37;6.20;;;0.90;;
46643;SDS011;32371;51.032;5.816;2023-03-24T12:27:02;1.95;;;0.50;;
46643;SDS011;32371;51.032;5.816;2023-03-24T12:29:37;5.00;;;1.02;;
46643;SDS011;32371;51.032;5.816;2023-03-24T12:35:09;3.47;;;0.47;;
46643;SDS011;32371;51.032;5.816;2023-03-24T12:37:46;6.18;;;1.45;;
46643;SDS011;32371;51.032;5.816;2023-03-24T12:45:48;2.05;;;0.57;;
46643;SDS011;32371;51.032;5.816;2023-03-24T12:56:57;5.88;;;0.93;;
46643;SDS011;32371;51.032;5.816;2023-03-24T12:59:37;2.08;;;1.02;;
46643;SDS011;32371;51.032;5.816;2023-03-24T13:02:26;2.70;;;0.65;;
46643;SDS011;32371;51.032;5.816;2023-03-24T13:04:55;2.22;;;0.50;;
46643;SDS011;32371;51.032;5.816;2023-03-24T13:07:24;3.85;;;1.33;;
46643;SDS011;32371;51.032;5.816;2023-03-24T13:09:56;4.90;;;1.02;;
46643;SDS011;32371;51.032;5.816;2023-03-24T13:15:01;1.85;;;0.63;;
46643;SDS011;32371;51.032;5.816;2023-03-24T13:20:26;3.67;;;0.73;;
46643;SDS011;32371;51.032;5.816;2023-03-24T13:22:54;4.55;;;0.82;;
46643;SDS011;32371;51.032;5.816;2023-03-24T13:25:34;5.35;;;0.85;;
46643;SDS011;32371;51.032;5.816;2023-03-24T13:28:06;3.00;;;0.57;;
46643;SDS011;32371;51.032;5.816;2023-03-24T13:30:35;3.58;;;0.85;;
46643;SDS011;32371;51.032;5.816;2023-03-24T13:33:45;1.75;;;0.50;;
46643;SDS011;32371;51.032;5.816;2023-03-24T13:38:39;2.17;;;0.70;;
46643;SDS011;32371;51.032;5.816;2023-03-24T13:41:10;1.42;;;0.52;;
46643;SDS011;32371;51.032;5.816;2023-03-24T13:43:37;5.47;;;0.95;;
46643;SDS011;32371;51.032;5.816;2023-03-24T13:46:13;2.28;;;0.55;;
46643;SDS011;32371;51.032;5.816;2023-03-24T13:48:40;4.20;;;0.90;;
46643;SDS011;32371;51.032;5.816;2023-03-24T13:51:17;5.28;;;0.55;;
46643;SDS011;32371;51.032;5.816;2023-03-24T13:56:36;5.13;;;0.77;;
46643;SDS011;32371;51.032;5.816;2023-03-24T13:59:06;3.50;;;0.80;;
46643;SDS011;32371;51.032;5.816;2023-03-24T14:01:35;3.95;;;0.70;;
46643;SDS011;32371;51.032;5.816;2023-03-24T14:06:55;4.80;;;0.80;;
46643;SDS011;32371;51.032;5.816;2023-03-24T14:11:49;4.18;;;0.68;;
46643;SDS011;32371;51.032;5.816;2023-03-24T14:14:27;1.48;;;0.63;;
46643;SDS011;32371;51.032;5.816;2023-03-24T14:17:14;4.40;;;0.50;;
46643;SDS011;32371;51.032;5.816;2023-03-24T14:19:41;6.13;;;0.65;;
46643;SDS011;32371;51.032;5.816;2023-03-24T14:25:32;3.60;;;0.90;;
46643;SDS011;32371;51.032;5.816;2023-03-24T14:27:39;5.32;;;0.77;;
46643;SDS011;32371;51.032;5.816;2023-03-24T14:32:38;2.42;;;0.50;;
46643;SDS011;32371;51.032;5.816;2023-03-24T14:35:18;7.03;;;0.98;;
46643;SDS011;32371;51.032;5.816;2023-03-24T14:37:54;8.55;;;1.23;;
46643;SDS011;32371;51.032;5.816;2023-03-24T14:40:37;3.83;;;0.85;;
46643;SDS011;32371;51.032;5.816;2023-03-24T14:46:02;4.05;;;0.40;;
46643;SDS011;32371;51.032;5.816;2023-03-24T14:54:00;3.63;;;0.30;;
46643;SDS011;32371;51.032;5.816;2023-03-24T14:56:28;2.20;;;0.47;;
46643;SDS011;32371;51.032;5.816;2023-03-24T14:59:46;2.63;;;0.22;;
46643;SDS011;32371;51.032;5.816;2023-03-24T15:01:59;0.68;;;0.40;;
46643;SDS011;32371;51.032;5.816;2023-03-24T15:04:29;2.22;;;0.20;;
46643;SDS011;32371;51.032;5.816;2023-03-24T15:06:54;2.88;;;0.40;;
46643;SDS011;32371;51.032;5.816;2023-03-24T15:09:20;1.50;;;0.30;;
46643;SDS011;32371;51.032;5.816;2023-03-24T15:11:46;2.45;;;0.32;;
46643;SDS011;32371;51.032;5.816;2023-03-24T15:14:30;2.53;;;0.50;;
46643;SDS011;32371;51.032;5.816;2023-03-24T15:17:02;0.68;;;0.22;;
46643;SDS011;32371;51.032;5.816;2023-03-24T15:19:30;3.80;;;0.68;;
46643;SDS011;32371;51.032;5.816;2023-03-24T15:21:59;4.95;;;0.25;;
46643;SDS011;32371;51.032;5.816;2023-03-24T15:24:29;6.00;;;0.50;;
46643;SDS011;32371;51.032;5.816;2023-03-24T15:29:28;2.58;;;0.40;;
46643;SDS011;32371;51.032;5.816;2023-03-24T15:31:53;3.05;;;0.40;;
46643;SDS011;32371;51.032;5.816;2023-03-24T15:43:05;0.60;;;0.20;;
46643;SDS011;32371;51.032;5.816;2023-03-24T15:45:42;0.73;;;0.20;;
46643;SDS011;32371;51.032;5.816;2023-03-24T15:48:12;0.40;;;0.40;;
46643;SDS011;32371;51.032;5.816;2023-03-24T15:50:40;2.45;;;0.57;;
46643;SDS011;32371;51.032;5.816;2023-03-24T15:57:59;2.13;;;0.45;;
46643;SDS011;32371;51.032;5.816;2023-03-24T16:00:44;0.45;;;0.30;;
46643;SDS011;32371;51.032;5.816;2023-03-24T16:03:09;1.75;;;0.45;;
46643;SDS011;32371;51.032;5.816;2023-03-24T16:05:44;0.43;;;0.13;;
46643;SDS011;32371;51.032;5.816;2023-03-24T16:11:10;2.45;;;0.20;;
46643;SDS011;32371;51.032;5.816;2023-03-24T16:13:37;0.25;;;0.10;;
46643;SDS011;32371;51.032;5.816;2023-03-24T16:18:40;0.70;;;0.30;;
46643;SDS011;32371;51.032;5.816;2023-03-24T16:23:38;0.90;;;0.20;;
46643;SDS011;32371;51.032;5.816;2023-03-24T16:26:03;0.50;;;0.20;;
46643;SDS011;32371;51.032;5.816;2023-03-24T16:28:29;3.10;;;0.40;;
46643;SDS011;32371;51.032;5.816;2023-03-24T16:31:04;2.47;;;0.30;;
46643;SDS011;32371;51.032;5.816;2023-03-24T16:33:30;2.45;;;0.47;;
46643;SDS011;32371;51.032;5.816;2023-03-24T16:35:57;3.90;;;0.52;;
46643;SDS011;32371;51.032;5.816;2023-03-24T16:38:23;0.32;;;0.22;;
46643;SDS011;32371;51.032;5.816;2023-03-24T16:40:49;0.90;;;0.47;;
46643;SDS011;32371;51.032;5.816;2023-03-24T16:43:16;2.50;;;0.65;;
46643;SDS011;32371;51.032;5.816;2023-03-24T16:45:43;2.60;;;0.55;;
46643;SDS011;32371;51.032;5.816;2023-03-24T16:48:10;1.95;;;0.40;;
46643;SDS011;32371;51.032;5.816;2023-03-24T16:50:40;4.38;;;0.45;;
46643;SDS011;32371;51.032;5.816;2023-03-24T16:53:06;3.60;;;0.55;;
46643;SDS011;32371;51.032;5.816;2023-03-24T16:55:36;1.83;;;0.43;;
46643;SDS011;32371;51.032;5.816;2023-03-24T16:58:03;2.08;;;0.55;;
46643;SDS011;32371;51.032;5.816;2023-03-24T17:00:29;1.17;;;0.43;;
46643;SDS011;32371;51.032;5.816;2023-03-24T17:02:55;2.15;;;1.02;;
46643;SDS011;32371;51.032;5.816;2023-03-24T17:05:31;1.50;;;0.55;;
46643;SDS011;32371;51.032;5.816;2023-03-24T17:08:01;2.30;;;0.47;;
46643;SDS011;32371;51.032;5.816;2023-03-24T17:10:26;1.67;;;0.45;;
46643;SDS011;32371;51.032;5.816;2023-03-24T17:12:53;4.75;;;1.25;;
46643;SDS011;32371;51.032;5.816;2023-03-24T17:15:21;0.90;;;0.55;;
46643;SDS011;32371;51.032;5.816;2023-03-24T17:17:51;5.78;;;0.50;;
46643;SDS011;32371;51.032;5.816;2023-03-24T17:20:17;0.73;;;0.55;;
46643;SDS011;32371;51.032;5.816;2023-03-24T17:22:43;5.82;;;0.55;;
46643;SDS011;32371;51.032;5.816;2023-03-24T17:25:10;0.65;;;0.47;;
46643;SDS011;32371;51.032;5.816;2023-03-24T17:27:37;4.90;;;0.47;;
46643;SDS011;32371;51.032;5.816;2023-03-24T17:30:03;3.90;;;0.70;;
46643;SDS011;32371;51.032;5.816;2023-03-24T17:32:30;3.00;;;0.40;;
46643;SDS011;32371;51.032;5.816;2023-03-24T17:34:57;5.45;;;0.55;;
46643;SDS011;32371;51.032;5.816;2023-03-24T17:37:23;1.50;;;0.30;;
46643;SDS011;32371;51.032;5.816;2023-03-24T17:39:50;3.63;;;0.55;;
46643;SDS011;32371;51.032;5.816;2023-03-24T17:42:15;2.15;;;0.55;;
46643;SDS011;32371;51.032;5.816;2023-03-24T17:44:40;3.80;;;0.77;;
46643;SDS011;32371;51.032;5.816;2023-03-24T17:47:06;3.28;;;0.52;;
46643;SDS011;32371;51.032;5.816;2023-03-24T17:49:32;1.70;;;0.50;;
46643;SDS011;32371;51.032;5.816;2023-03-24T17:51:58;1.75;;;0.45;;
46643;SDS011;32371;51.032;5.816;2023-03-24T17:54:23;2.95;;;0.43;;
46643;SDS011;32371;51.032;5.816;2023-03-24T17:56:49;1.98;;;0.65;;